createdAt,value
2018-03-21T00:00:56.093Z,15.30
2018-03-21T00:03:25.214Z,17.35
2018-03-21T00:05:54.340Z,12.82
2018-03-21T00:08:23.461Z,21.00
2018-03-21T00:10:52.727Z,14.18
2018-03-21T00:13:22.192Z,20.52
2018-03-21T00:15:51.363Z,19.12
2018-03-21T00:18:20.492Z,31.27
2018-03-21T00:20:49.992Z,17.65
2018-03-21T00:23:19.108Z,17.40
2018-03-21T00:25:48.239Z,17.70
2018-03-21T00:28:17.725Z,18.05
2018-03-21T00:30:46.855Z,20.92
2018-03-21T00:33:15.983Z,26.48
2018-03-21T00:35:45.127Z,25.08
2018-03-21T00:38:14.276Z,20.85
2018-03-21T00:40:43.401Z,14.27
2018-03-21T00:43:12.579Z,12.18
2018-03-21T00:45:41.800Z,20.02
2018-03-21T00:48:10.916Z,17.23
2018-03-21T00:50:40.399Z,14.50
2018-03-21T00:53:09.535Z,17.05
2018-03-21T00:55:38.674Z,19.90
2018-03-21T00:58:07.816Z,20.88
2018-03-21T01:00:36.944Z,16.08
2018-03-21T01:03:06.055Z,22.02
2018-03-21T01:05:35.484Z,19.50
2018-03-21T01:08:04.680Z,22.37
2018-03-21T01:10:33.802Z,23.27
2018-03-21T01:13:03.247Z,16.67
2018-03-21T01:15:32.373Z,15.93
2018-03-21T01:18:01.490Z,24.63
2018-03-21T01:20:30.939Z,20.40
2018-03-21T01:23:00.176Z,18.70
2018-03-21T01:25:29.300Z,14.87
2018-03-21T01:27:58.979Z,15.57
2018-03-21T01:30:28.096Z,18.80
2018-03-21T01:32:57.218Z,17.48
2018-03-21T01:35:26.779Z,20.20
2018-03-21T01:37:55.900Z,21.50
2018-03-21T01:40:25.174Z,22.62
2018-03-21T01:42:54.643Z,18.45
2018-03-21T01:45:23.768Z,23.70
2018-03-21T01:47:52.886Z,17.58
2018-03-21T01:50:22.331Z,10.52
2018-03-21T01:52:57.449Z,19.35
2018-03-21T01:55:26.592Z,13.23
2018-03-21T01:57:55.728Z,22.80
2018-03-21T02:00:24.855Z,20.02
2018-03-21T02:02:54.478Z,15.25
2018-03-21T02:05:23.603Z,12.10
2018-03-21T02:07:52.715Z,11.12
2018-03-21T02:10:22.175Z,21.48
2018-03-21T02:12:51.307Z,10.88
2018-03-21T02:15:20.455Z,16.98
2018-03-21T02:17:49.766Z,7.82
2018-03-21T02:20:19.002Z,25.52
2018-03-21T02:22:48.116Z,12.73
2018-03-21T02:25:17.594Z,12.57
2018-03-21T02:27:46.711Z,13.23
2018-03-21T02:30:15.839Z,26.73
2018-03-21T02:32:45.345Z,20.10
2018-03-21T02:35:14.461Z,18.80
2018-03-21T02:37:43.676Z,19.20
2018-03-21T02:40:13.117Z,15.07
2018-03-21T02:42:42.219Z,17.00
2018-03-21T02:45:11.342Z,18.75
2018-03-21T02:47:40.511Z,14.80
2018-03-21T02:50:09.650Z,18.75
2018-03-21T02:52:38.760Z,18.62
2018-03-21T02:55:08.235Z,23.38
2018-03-21T02:57:37.371Z,20.73
2018-03-21T03:00:06.556Z,16.52
2018-03-21T03:02:36.024Z,14.70
2018-03-21T03:05:05.162Z,22.50
2018-03-21T03:07:34.279Z,15.40
2018-03-21T03:10:03.730Z,25.55
2018-03-21T03:12:32.856Z,21.70
2018-03-21T03:15:01.982Z,21.27
2018-03-21T03:17:31.180Z,22.15
2018-03-21T03:20:00.301Z,16.75
2018-03-21T03:22:29.538Z,24.75
2018-03-21T03:24:59.013Z,15.57
2018-03-21T03:27:28.218Z,11.93
2018-03-21T03:29:57.359Z,14.75
2018-03-21T03:32:26.488Z,11.10
2018-03-21T03:34:55.599Z,12.65
2018-03-21T03:37:24.825Z,19.60
2018-03-21T03:39:54.303Z,13.90
2018-03-21T03:42:23.528Z,16.80
2018-03-21T03:44:52.647Z,13.27
2018-03-21T03:47:22.101Z,17.25
2018-03-21T03:49:51.216Z,18.50
2018-03-21T03:52:20.372Z,9.90
2018-03-21T03:54:49.589Z,10.90
2018-03-21T03:57:18.719Z,16.12
2018-03-21T03:59:47.959Z,16.23
2018-03-21T04:02:17.416Z,19.20
2018-03-21T04:04:46.531Z,17.90
2018-03-21T04:07:15.656Z,12.13
2018-03-21T04:09:45.091Z,22.02
2018-03-21T04:12:14.213Z,16.05
2018-03-21T04:14:43.404Z,10.85
2018-03-21T04:17:12.908Z,19.60
2018-03-21T04:19:42.105Z,17.98
2018-03-21T04:22:11.227Z,12.73
2018-03-21T04:24:40.686Z,10.25
2018-03-21T04:27:09.820Z,16.95
2018-03-21T04:29:38.936Z,18.90
2018-03-21T04:32:08.372Z,13.55
2018-03-21T04:34:37.596Z,13.52
2018-03-21T04:37:06.727Z,15.77
2018-03-21T04:39:35.864Z,15.73
2018-03-21T04:42:04.986Z,18.95
2018-03-21T04:44:34.096Z,12.60
2018-03-21T04:47:03.598Z,15.18
2018-03-21T04:49:32.715Z,13.02
2018-03-21T04:52:01.835Z,15.48
2018-03-21T04:54:31.362Z,13.18
2018-03-21T04:57:00.584Z,10.90
2018-03-21T04:59:29.699Z,15.70
2018-03-21T05:01:59.257Z,11.12
2018-03-21T05:04:28.401Z,15.27
2018-03-21T05:06:57.552Z,14.35
2018-03-21T05:09:26.963Z,14.80
2018-03-21T05:11:56.079Z,13.70
2018-03-21T05:14:25.242Z,13.82
2018-03-21T05:16:54.383Z,13.65
2018-03-21T05:19:23.496Z,8.95
2018-03-21T05:21:52.642Z,14.80
2018-03-21T05:24:23.087Z,7.07
2018-03-21T05:26:52.280Z,13.40
2018-03-21T05:29:21.448Z,13.75
2018-03-21T05:31:50.957Z,21.00
2018-03-21T05:34:20.087Z,16.45
2018-03-21T05:36:49.204Z,31.87
2018-03-21T05:39:18.647Z,20.67
2018-03-21T05:41:47.811Z,38.00
2018-03-21T05:44:16.985Z,39.15
2018-03-21T05:46:46.988Z,26.05
2018-03-21T05:49:16.184Z,18.65
2018-03-21T05:51:45.384Z,37.85
2018-03-21T05:54:14.855Z,16.98
2018-03-21T05:56:44.127Z,14.10
2018-03-21T05:59:13.260Z,25.35
2018-03-21T06:01:42.675Z,13.55
2018-03-21T06:04:11.885Z,11.95
2018-03-21T06:06:41.003Z,11.25
2018-03-21T06:09:10.582Z,18.98
2018-03-21T06:11:39.701Z,24.23
2018-03-21T06:14:08.915Z,10.23
2018-03-21T06:16:38.491Z,12.20
2018-03-21T06:19:07.603Z,28.45
2018-03-21T06:21:36.726Z,12.57
2018-03-21T06:24:06.252Z,9.82
2018-03-21T06:26:35.465Z,8.88
2018-03-21T06:29:04.586Z,7.68
2018-03-21T06:31:34.049Z,11.63
2018-03-21T06:34:03.233Z,10.63
2018-03-21T06:36:32.532Z,9.32
2018-03-21T06:39:02.083Z,6.10
2018-03-21T06:41:31.221Z,6.75
2018-03-21T06:44:00.342Z,6.25
2018-03-21T06:46:29.846Z,8.98
2018-03-21T06:48:58.984Z,8.18
2018-03-21T06:51:28.095Z,9.18
2018-03-21T06:53:57.559Z,8.13
2018-03-21T06:56:26.682Z,9.63
2018-03-21T06:58:55.791Z,6.80
2018-03-21T07:01:25.374Z,10.98
2018-03-21T07:03:54.492Z,10.70
2018-03-21T07:06:23.610Z,7.87
2018-03-21T07:08:53.259Z,8.65
2018-03-21T07:11:22.384Z,7.43
2018-03-21T07:13:57.471Z,10.85
2018-03-21T07:16:32.527Z,13.00
2018-03-21T07:19:01.988Z,10.23
2018-03-21T07:21:31.205Z,10.65
2018-03-21T07:24:00.438Z,9.32
2018-03-21T07:26:30.928Z,12.13
2018-03-21T07:29:00.044Z,13.70
2018-03-21T07:31:29.158Z,11.18
2018-03-21T07:33:58.603Z,14.63
2018-03-21T07:36:27.756Z,14.35
2018-03-21T07:38:56.904Z,10.70
2018-03-21T07:41:26.424Z,9.27
2018-03-21T07:43:55.555Z,10.75
2018-03-21T07:46:24.667Z,8.95
2018-03-21T07:48:54.115Z,23.17
2018-03-21T07:51:23.238Z,9.52
2018-03-21T07:53:52.376Z,9.40
2018-03-21T07:56:21.850Z,16.17
2018-03-21T07:58:51.060Z,13.50
2018-03-21T08:01:20.251Z,10.32
2018-03-21T08:03:49.924Z,12.90
2018-03-21T08:06:19.157Z,8.98
2018-03-21T08:08:48.324Z,14.15
2018-03-21T08:11:17.467Z,10.27
2018-03-21T08:13:46.600Z,12.02
2018-03-21T08:16:15.775Z,20.10
2018-03-21T08:18:45.321Z,11.15
2018-03-21T08:21:14.540Z,15.15
2018-03-21T08:23:43.693Z,14.18
2018-03-21T08:26:12.840Z,8.23
2018-03-21T08:28:41.954Z,10.55
2018-03-21T08:31:11.102Z,10.52
2018-03-21T08:33:40.595Z,8.43
2018-03-21T08:36:09.703Z,9.73
2018-03-21T08:38:38.831Z,8.88
2018-03-21T08:41:08.321Z,6.62
2018-03-21T08:43:37.466Z,9.98
2018-03-21T08:46:06.578Z,6.70
2018-03-21T08:48:36.629Z,11.23
2018-03-21T08:51:05.743Z,8.43
2018-03-21T08:53:35.029Z,12.10
2018-03-21T08:56:04.659Z,6.68
2018-03-21T08:58:33.777Z,11.65
2018-03-21T09:01:02.911Z,5.03
2018-03-21T09:03:32.060Z,6.25
2018-03-21T09:06:01.179Z,11.95
2018-03-21T09:08:30.420Z,10.90
2018-03-21T09:10:59.910Z,10.57
2018-03-21T09:13:29.122Z,6.85
2018-03-21T09:15:58.236Z,8.45
2018-03-21T09:18:27.722Z,9.13
2018-03-21T09:20:56.947Z,6.12
2018-03-21T09:23:26.067Z,5.62
2018-03-21T09:25:55.481Z,6.07
2018-03-21T09:28:24.716Z,5.75
2018-03-21T09:30:53.828Z,6.78
2018-03-21T09:33:22.979Z,6.72
2018-03-21T09:35:52.118Z,4.78
2018-03-21T09:38:21.231Z,7.75
2018-03-21T09:40:50.787Z,7.12
2018-03-21T09:43:19.896Z,9.00
2018-03-21T09:45:49.028Z,8.45
2018-03-21T09:48:18.466Z,8.48
2018-03-21T09:50:47.715Z,10.90
2018-03-21T09:53:16.898Z,13.65
2018-03-21T09:55:46.402Z,15.57
2018-03-21T09:58:15.605Z,9.18
2018-03-21T10:00:44.730Z,6.12
2018-03-21T10:08:56.726Z,8.63
2018-03-21T10:11:25.927Z,9.32
2018-03-21T10:13:55.124Z,10.98
2018-03-21T10:16:24.601Z,13.77
2018-03-21T10:18:53.733Z,13.23
2018-03-21T10:21:22.925Z,3.85
2018-03-21T10:23:52.043Z,7.50
2018-03-21T10:26:21.190Z,3.72
2018-03-21T10:28:50.530Z,11.60
2018-03-21T10:31:20.098Z,9.35
2018-03-21T10:33:49.326Z,6.12
2018-03-21T10:36:18.438Z,6.75
2018-03-21T10:38:47.879Z,7.85
2018-03-21T10:41:17.132Z,8.27
2018-03-21T10:43:46.253Z,6.93
2018-03-21T10:46:15.829Z,13.93
2018-03-21T10:48:44.950Z,4.95
2018-03-21T10:51:14.083Z,6.68
2018-03-21T10:53:43.304Z,4.68
2018-03-21T10:56:12.420Z,4.72
2018-03-21T10:58:41.592Z,5.03
2018-03-21T11:01:16.886Z,6.55
2018-03-21T11:03:51.908Z,3.25
2018-03-21T11:06:21.382Z,3.42
2018-03-21T11:08:50.499Z,4.28
2018-03-21T11:11:19.611Z,6.75
2018-03-21T11:13:49.080Z,6.37
2018-03-21T11:16:18.231Z,3.85
2018-03-21T11:18:47.431Z,4.15
2018-03-21T11:21:16.975Z,4.85
2018-03-21T11:23:46.111Z,3.25
2018-03-21T11:26:15.223Z,3.60
2018-03-21T11:28:44.482Z,5.82
2018-03-21T11:31:13.624Z,5.82
2018-03-21T11:33:42.744Z,4.97
2018-03-21T11:36:11.874Z,7.85
2018-03-21T11:38:41.059Z,3.70
2018-03-21T11:41:10.211Z,4.65
2018-03-21T11:43:39.342Z,6.25
2018-03-21T11:46:08.457Z,4.37
2018-03-21T11:48:37.579Z,3.60
2018-03-21T11:51:07.107Z,3.70
2018-03-21T11:53:36.238Z,1.98
2018-03-21T11:56:05.396Z,4.50
2018-03-21T11:58:34.569Z,4.65
2018-03-21T12:01:03.744Z,1.42
2018-03-21T12:03:32.924Z,4.90
2018-03-21T12:06:02.430Z,2.25
2018-03-21T12:08:31.607Z,3.85
2018-03-21T12:11:00.823Z,2.83
2018-03-21T12:13:30.327Z,2.58
2018-03-21T12:15:59.467Z,1.80
2018-03-21T12:18:28.619Z,2.60
2018-03-21T12:20:58.243Z,2.97
2018-03-21T12:23:27.370Z,1.95
2018-03-21T12:25:56.478Z,2.85
2018-03-21T12:28:25.616Z,7.43
2018-03-21T12:30:54.730Z,3.30
2018-03-21T12:33:23.878Z,5.95
2018-03-21T12:35:53.038Z,3.75
2018-03-21T12:38:22.181Z,2.72
2018-03-21T12:40:51.336Z,5.93
2018-03-21T12:43:20.783Z,7.93
2018-03-21T12:45:50.004Z,9.30
2018-03-21T12:48:19.192Z,6.05
2018-03-21T12:50:48.728Z,5.25
2018-03-21T12:53:17.837Z,3.33
2018-03-21T12:55:47.033Z,6.35
2018-03-21T12:58:16.451Z,3.53
2018-03-21T13:00:45.592Z,6.15
2018-03-21T13:03:14.701Z,7.05
2018-03-21T13:05:43.855Z,3.12
2018-03-21T13:08:12.969Z,5.35
2018-03-21T13:10:42.123Z,5.57
2018-03-21T13:13:11.543Z,4.75
2018-03-21T13:15:40.676Z,9.48
2018-03-21T13:18:09.787Z,5.85
2018-03-21T13:20:39.389Z,3.47
2018-03-21T13:23:08.507Z,5.65
2018-03-21T13:25:37.640Z,7.45
2018-03-21T13:28:07.073Z,8.02
2018-03-21T13:30:36.183Z,5.55
2018-03-21T13:33:05.295Z,6.37
2018-03-21T13:35:34.735Z,5.97
2018-03-21T13:38:03.851Z,6.15
2018-03-21T13:40:33.017Z,7.30
2018-03-21T13:43:02.427Z,7.43
2018-03-21T13:45:31.551Z,6.97
2018-03-21T13:48:00.702Z,6.00
2018-03-21T13:50:30.241Z,8.73
2018-03-21T13:53:00.144Z,3.58
2018-03-21T13:55:29.308Z,9.90
2018-03-21T13:57:58.697Z,6.25
2018-03-21T14:00:27.831Z,7.62
2018-03-21T14:02:56.958Z,8.52
2018-03-21T14:05:26.104Z,7.95
2018-03-21T14:07:55.218Z,5.50
2018-03-21T14:10:24.329Z,3.37
2018-03-21T14:12:53.500Z,7.57
2018-03-21T14:15:22.717Z,6.30
2018-03-21T14:17:51.943Z,5.22
2018-03-21T14:20:21.416Z,5.78
2018-03-21T14:22:50.552Z,3.47
2018-03-21T14:25:19.712Z,10.70
2018-03-21T14:27:48.850Z,6.90
2018-03-21T14:30:18.136Z,5.72
2018-03-21T14:32:47.315Z,7.57
2018-03-21T14:35:16.514Z,8.23
2018-03-21T14:37:45.652Z,8.23
2018-03-21T14:40:14.784Z,5.75
2018-03-21T14:42:44.211Z,9.23
2018-03-21T14:45:13.327Z,6.97
2018-03-21T14:47:42.456Z,7.10
2018-03-21T14:50:11.887Z,7.03
2018-03-21T14:52:41.118Z,6.75
2018-03-21T14:55:10.323Z,4.05
2018-03-21T14:57:39.785Z,7.78
2018-03-21T15:00:08.919Z,7.80
2018-03-21T15:02:38.039Z,6.18
2018-03-21T15:05:07.579Z,7.62
2018-03-21T15:07:36.716Z,10.32
2018-03-21T15:10:05.909Z,8.57
2018-03-21T15:12:35.111Z,7.10
2018-03-21T15:15:04.231Z,10.00
2018-03-21T15:17:33.344Z,6.40
2018-03-21T15:20:02.754Z,9.13
2018-03-21T15:22:31.898Z,9.80
2018-03-21T15:25:01.478Z,6.70
2018-03-21T15:27:30.980Z,9.73
2018-03-21T15:30:00.092Z,8.25
2018-03-21T15:32:29.210Z,9.98
2018-03-21T15:34:58.399Z,8.02
2018-03-21T15:37:27.652Z,8.05
2018-03-21T15:39:56.731Z,9.88
2018-03-21T15:42:26.139Z,10.95
2018-03-21T15:44:55.274Z,11.68
2018-03-21T15:47:24.489Z,9.88
2018-03-21T15:49:53.656Z,15.88
2018-03-21T15:52:22.838Z,13.85
2018-03-21T15:54:51.978Z,12.57
2018-03-21T15:57:21.103Z,12.05
2018-03-21T15:59:50.237Z,12.82
2018-03-21T16:02:19.356Z,13.38
2018-03-21T16:04:48.497Z,13.68
2018-03-21T16:07:17.654Z,15.43
2018-03-21T16:09:46.769Z,9.70
2018-03-21T16:12:16.228Z,12.48
2018-03-21T16:14:45.349Z,13.60
2018-03-21T16:17:14.487Z,11.27
2018-03-21T16:19:43.921Z,14.25
2018-03-21T16:22:13.048Z,15.63
2018-03-21T16:24:42.168Z,17.67
2018-03-21T16:27:11.615Z,12.07
2018-03-21T16:29:40.747Z,12.85
2018-03-21T16:32:09.943Z,20.00
2018-03-21T16:34:39.109Z,12.43
2018-03-21T16:37:08.234Z,13.38
2018-03-21T16:39:37.365Z,15.77
2018-03-21T16:42:07.004Z,17.50
2018-03-21T16:44:36.144Z,12.68
2018-03-21T16:47:05.247Z,13.80
2018-03-21T16:49:34.705Z,15.35
2018-03-21T16:52:03.867Z,11.95
2018-03-21T16:54:33.027Z,16.45
2018-03-21T16:57:02.507Z,14.38
2018-03-21T16:59:31.675Z,15.98
2018-03-21T17:02:00.824Z,15.20
2018-03-21T17:04:29.959Z,17.67
2018-03-21T17:06:59.083Z,13.85
2018-03-21T17:09:28.236Z,17.62
2018-03-21T17:11:57.645Z,14.85
2018-03-21T17:14:26.810Z,14.82
2018-03-21T17:16:55.939Z,16.33
2018-03-21T17:19:25.353Z,15.90
2018-03-21T17:21:54.480Z,20.58
2018-03-21T17:24:23.619Z,14.50
2018-03-21T17:26:52.863Z,18.15
2018-03-21T17:29:21.980Z,14.80
2018-03-21T17:31:51.136Z,21.33
2018-03-21T17:34:20.274Z,17.80
2018-03-21T17:36:49.400Z,20.20
2018-03-21T17:39:18.519Z,21.58
2018-03-21T17:41:48.066Z,22.75
2018-03-21T17:44:17.197Z,22.30
2018-03-21T17:46:46.322Z,20.10
2018-03-21T17:49:15.711Z,21.27
2018-03-21T17:51:44.824Z,19.12
2018-03-21T17:54:13.955Z,24.48
2018-03-21T17:56:43.138Z,22.25
2018-03-21T17:59:12.268Z,19.65
2018-03-21T18:01:41.396Z,16.85
2018-03-21T18:04:10.847Z,19.35
2018-03-21T18:06:40.007Z,22.35
2018-03-21T18:09:09.146Z,21.52
2018-03-21T18:11:38.730Z,20.90
2018-03-21T18:14:07.960Z,22.20
2018-03-21T18:16:37.090Z,21.83
2018-03-21T18:19:06.215Z,23.30
2018-03-21T18:21:35.453Z,24.60
2018-03-21T18:24:04.584Z,27.30
2018-03-21T18:26:34.093Z,27.08
2018-03-21T18:29:03.516Z,24.77
2018-03-21T18:31:32.673Z,24.52
2018-03-21T18:34:02.120Z,25.37
2018-03-21T18:36:31.354Z,35.92
2018-03-21T18:39:00.546Z,27.17
2018-03-21T18:41:30.036Z,26.60
2018-03-21T18:43:59.227Z,22.50
2018-03-21T18:46:28.347Z,30.37
2018-03-21T18:48:57.810Z,23.30
2018-03-21T18:51:26.938Z,28.58
2018-03-21T18:53:56.139Z,24.17
2018-03-21T18:56:25.627Z,24.05
2018-03-21T18:58:54.767Z,28.65
2018-03-21T19:01:23.919Z,24.65
2018-03-21T19:03:53.342Z,26.83
2018-03-21T19:06:22.467Z,28.98
2018-03-21T19:08:51.643Z,28.25
2018-03-21T19:11:20.792Z,23.30
2018-03-21T19:13:49.925Z,24.20
2018-03-21T19:16:19.056Z,27.23
2018-03-21T19:18:48.202Z,28.00
2018-03-21T19:21:17.320Z,26.42
2018-03-21T19:23:46.654Z,26.70
2018-03-21T19:26:16.706Z,33.35
2018-03-21T19:28:45.940Z,28.65
2018-03-21T19:31:15.087Z,31.08
2018-03-21T19:33:44.217Z,31.40
2018-03-21T19:36:13.375Z,27.90
2018-03-21T19:38:42.504Z,29.17
2018-03-21T19:41:11.900Z,30.58
2018-03-21T19:43:41.036Z,34.05
2018-03-21T19:46:10.287Z,31.08
2018-03-21T19:48:39.568Z,32.75
2018-03-21T19:51:08.700Z,28.92
2018-03-21T19:53:37.827Z,30.25
2018-03-21T19:56:07.330Z,33.05
2018-03-21T19:58:36.543Z,26.62
2018-03-21T20:01:05.677Z,35.65
2018-03-21T20:03:35.218Z,31.30
2018-03-21T20:06:04.416Z,33.22
2018-03-21T20:08:33.553Z,29.87
2018-03-21T20:11:03.256Z,27.75
2018-03-21T20:13:32.336Z,25.88
2018-03-21T20:16:01.549Z,30.17
2018-03-21T20:18:30.688Z,26.33
2018-03-21T20:20:59.902Z,31.05
2018-03-21T20:23:29.103Z,25.85
2018-03-21T20:25:58.567Z,26.90
2018-03-21T20:28:27.703Z,35.15
2018-03-21T20:30:56.865Z,26.45
2018-03-21T20:33:26.384Z,31.33
2018-03-21T20:35:55.512Z,30.23
2018-03-21T20:38:24.695Z,31.30
2018-03-21T20:40:54.163Z,34.50
2018-03-21T20:43:23.308Z,27.60
2018-03-21T20:45:52.460Z,27.77
2018-03-21T20:48:21.976Z,27.33
2018-03-21T20:50:51.122Z,24.02
2018-03-21T20:53:20.258Z,23.20
2018-03-21T20:55:49.788Z,25.90
2018-03-21T20:58:18.921Z,26.23
2018-03-21T21:00:48.047Z,29.37
2018-03-21T21:03:17.590Z,24.35
2018-03-21T21:05:46.739Z,24.40
2018-03-21T21:08:15.875Z,17.60
2018-03-21T21:10:45.373Z,20.92
2018-03-21T21:13:14.508Z,20.52
2018-03-21T21:15:43.668Z,23.20
2018-03-21T21:18:13.083Z,29.70
2018-03-21T21:20:42.202Z,22.52
2018-03-21T21:23:11.329Z,22.17
2018-03-21T21:25:40.907Z,23.05
2018-03-21T21:28:10.050Z,24.40
2018-03-21T21:30:39.276Z,21.17
2018-03-21T21:33:08.757Z,19.05
2018-03-21T21:35:37.895Z,23.35
2018-03-21T21:38:07.039Z,20.00
2018-03-21T21:40:36.268Z,23.52
2018-03-21T21:43:05.387Z,17.70
2018-03-21T21:45:34.510Z,25.98
2018-03-21T21:48:04.040Z,23.35
2018-03-21T21:50:33.175Z,26.33
2018-03-21T21:53:02.294Z,22.77
2018-03-21T21:55:31.462Z,18.23
2018-03-21T21:58:00.617Z,25.27
2018-03-21T22:00:29.803Z,23.60
2018-03-21T22:02:59.329Z,23.15
2018-03-21T22:05:28.454Z,23.98
2018-03-21T22:07:57.604Z,23.52
2018-03-21T22:10:26.737Z,24.42
2018-03-21T22:12:55.871Z,24.12
2018-03-21T22:15:24.996Z,25.73
2018-03-21T22:17:54.571Z,22.40
2018-03-21T22:20:23.690Z,23.40
2018-03-21T22:22:52.919Z,27.70
2018-03-21T22:25:22.469Z,25.77
2018-03-21T22:27:51.632Z,24.92
2018-03-21T22:30:20.765Z,23.65
2018-03-21T22:32:50.187Z,29.77
2018-03-21T22:35:19.436Z,20.33
2018-03-21T22:37:48.574Z,23.98
2018-03-21T22:40:18.007Z,32.40
2018-03-21T22:42:47.126Z,29.90
2018-03-21T22:45:16.328Z,20.52
2018-03-21T22:47:45.786Z,24.20
2018-03-21T22:50:14.903Z,20.77
2018-03-21T22:52:44.074Z,24.08
2018-03-21T22:55:13.466Z,26.00
2018-03-21T22:57:42.590Z,27.17
2018-03-21T23:00:11.708Z,25.15
2018-03-21T23:02:40.860Z,25.35
2018-03-21T23:05:09.982Z,11.55
2018-03-21T23:07:39.100Z,24.98
2018-03-21T23:10:08.509Z,24.27
2018-03-21T23:12:37.662Z,24.58
2018-03-21T23:15:06.791Z,21.92
2018-03-21T23:17:36.694Z,29.30
2018-03-21T23:20:05.842Z,20.67
2018-03-21T23:22:34.959Z,24.55
2018-03-21T23:25:04.495Z,21.90
2018-03-21T23:27:33.634Z,18.05
2018-03-21T23:30:02.764Z,22.83
2018-03-21T23:32:32.191Z,34.55
2018-03-21T23:35:01.372Z,19.50
2018-03-21T23:37:30.503Z,27.45
2018-03-21T23:39:59.980Z,28.75
2018-03-21T23:42:29.107Z,28.42
2018-03-21T23:44:58.265Z,27.55
2018-03-21T23:47:27.786Z,20.45
2018-03-21T23:49:56.930Z,28.62
2018-03-21T23:52:26.079Z,21.65
2018-03-21T23:54:55.298Z,23.52
2018-03-21T23:57:24.460Z,26.85
2018-03-21T23:59:53.580Z,27.87
